sensor_id;sensor_type;location;lat;lon;timestamp;P1;durP1;ratioP1;P2;durP2;ratioP2
13866;SDS011;7003;46.982;15.248;2022-09-16T00:01:00;1.50;;;1.30;;
13866;SDS011;7003;46.982;15.248;2022-09-16T00:03:27;1.77;;;1.48;;
13866;SDS011;7003;46.982;15.248;2022-09-16T00:05:58;2.10;;;1.52;;
13866;SDS011;7003;46.982;15.248;2022-09-16T00:08:25;1.65;;;1.55;;
13866;SDS011;7003;46.982;15.248;2022-09-16T00:10:57;2.20;;;1.92;;
13866;SDS011;7003;46.982;15.248;2022-09-16T00:13:29;2.72;;;1.80;;
13866;SDS011;7003;46.982;15.248;2022-09-16T00:15:58;2.17;;;1.75;;
13866;SDS011;7003;46.982;15.248;2022-09-16T00:18:29;2.63;;;1.63;;
13866;SDS011;7003;46.982;15.248;2022-09-16T00:21:00;2.13;;;1.40;;
13866;SDS011;7003;46.982;15.248;2022-09-16T00:23:30;1.65;;;1.55;;
13866;SDS011;7003;46.982;15.248;2022-09-16T00:25:58;1.95;;;1.65;;
13866;SDS011;7003;46.982;15.248;2022-09-16T00:28:27;2.60;;;2.00;;
13866;SDS011;7003;46.982;15.248;2022-09-16T00:30:57;1.33;;;1.23;;
13866;SDS011;7003;46.982;15.248;2022-09-16T00:33:27;1.85;;;1.42;;
13866;SDS011;7003;46.982;15.248;2022-09-16T00:36:06;2.85;;;1.83;;
13866;SDS011;7003;46.982;15.248;2022-09-16T00:38:38;1.88;;;1.75;;
13866;SDS011;7003;46.982;15.248;2022-09-16T00:41:09;4.20;;;2.15;;
13866;SDS011;7003;46.982;15.248;2022-09-16T00:43:45;2.08;;;1.45;;
13866;SDS011;7003;46.982;15.248;2022-09-16T00:46:16;1.30;;;1.20;;
13866;SDS011;7003;46.982;15.248;2022-09-16T00:48:47;1.63;;;1.10;;
13866;SDS011;7003;46.982;15.248;2022-09-16T00:51:19;1.45;;;1.15;;
13866;SDS011;7003;46.982;15.248;2022-09-16T00:53:51;1.58;;;1.33;;
13866;SDS011;7003;46.982;15.248;2022-09-16T00:56:22;1.85;;;1.17;;
13866;SDS011;7003;46.982;15.248;2022-09-16T00:58:57;4.85;;;1.80;;
13866;SDS011;7003;46.982;15.248;2022-09-16T01:01:28;1.40;;;1.30;;
13866;SDS011;7003;46.982;15.248;2022-09-16T01:03:58;5.00;;;1.85;;
13866;SDS011;7003;46.982;15.248;2022-09-16T01:06:30;3.72;;;1.75;;
13866;SDS011;7003;46.982;15.248;2022-09-16T01:09:02;2.83;;;1.00;;
13866;SDS011;7003;46.982;15.248;2022-09-16T01:11:29;1.58;;;0.90;;
13866;SDS011;7003;46.982;15.248;2022-09-16T01:13:57;1.52;;;1.42;;
13866;SDS011;7003;46.982;15.248;2022-09-16T01:16:44;5.22;;;1.13;;
13866;SDS011;7003;46.982;15.248;2022-09-16T01:19:20;1.98;;;1.20;;
13866;SDS011;7003;46.982;15.248;2022-09-16T01:22:12;1.08;;;0.98;;
13866;SDS011;7003;46.982;15.248;2022-09-16T01:24:53;1.40;;;1.15;;
13866;SDS011;7003;46.982;15.248;2022-09-16T01:27:43;1.73;;;1.05;;
13866;SDS011;7003;46.982;15.248;2022-09-16T01:30:49;1.25;;;1.02;;
13866;SDS011;7003;46.982;15.248;2022-09-16T01:33:33;1.15;;;1.05;;
13866;SDS011;7003;46.982;15.248;2022-09-16T01:36:10;3.95;;;1.00;;
13866;SDS011;7003;46.982;15.248;2022-09-16T01:38:55;1.02;;;0.95;;
13866;SDS011;7003;46.982;15.248;2022-09-16T01:41:36;1.88;;;1.20;;
13866;SDS011;7003;46.982;15.248;2022-09-16T01:44:14;1.85;;;1.50;;
13866;SDS011;7003;46.982;15.248;2022-09-16T01:46:55;1.20;;;0.85;;
13866;SDS011;7003;46.982;15.248;2022-09-16T01:49:34;1.95;;;1.10;;
13866;SDS011;7003;46.982;15.248;2022-09-16T01:52:10;5.78;;;1.33;;
13866;SDS011;7003;46.982;15.248;2022-09-16T01:54:46;0.80;;;0.80;;
13866;SDS011;7003;46.982;15.248;2022-09-16T01:57:20;1.77;;;1.02;;
13866;SDS011;7003;46.982;15.248;2022-09-16T01:59:57;6.43;;;1.52;;
13866;SDS011;7003;46.982;15.248;2022-09-16T02:02:39;1.05;;;1.05;;
13866;SDS011;7003;46.982;15.248;2022-09-16T02:05:11;4.82;;;1.10;;
13866;SDS011;7003;46.982;15.248;2022-09-16T02:07:46;4.32;;;1.15;;
13866;SDS011;7003;46.982;15.248;2022-09-16T02:10:18;2.10;;;1.63;;
13866;SDS011;7003;46.982;15.248;2022-09-16T02:13:06;1.33;;;1.17;;
13866;SDS011;7003;46.982;15.248;2022-09-16T02:15:40;1.55;;;1.40;;
13866;SDS011;7003;46.982;15.248;2022-09-16T02:18:12;1.10;;;1.00;;
13866;SDS011;7003;46.982;15.248;2022-09-16T02:20:48;0.95;;;0.95;;
13866;SDS011;7003;46.982;15.248;2022-09-16T02:23:21;2.03;;;1.25;;
13866;SDS011;7003;46.982;15.248;2022-09-16T02:25:56;1.30;;;0.98;;
13866;SDS011;7003;46.982;15.248;2022-09-16T02:28:26;1.00;;;0.90;;
13866;SDS011;7003;46.982;15.248;2022-09-16T02:30:58;1.42;;;1.10;;
13866;SDS011;7003;46.982;15.248;2022-09-16T02:33:34;3.35;;;1.40;;
13866;SDS011;7003;46.982;15.248;2022-09-16T02:36:06;2.55;;;1.45;;
13866;SDS011;7003;46.982;15.248;2022-09-16T02:38:36;1.10;;;1.02;;
13866;SDS011;7003;46.982;15.248;2022-09-16T02:41:09;1.38;;;1.27;;
13866;SDS011;7003;46.982;15.248;2022-09-16T02:43:41;1.30;;;1.20;;
13866;SDS011;7003;46.982;15.248;2022-09-16T02:46:15;1.50;;;1.13;;
13866;SDS011;7003;46.982;15.248;2022-09-16T02:48:52;1.52;;;1.42;;
13866;SDS011;7003;46.982;15.248;2022-09-16T02:51:27;1.42;;;1.33;;
13866;SDS011;7003;46.982;15.248;2022-09-16T02:54:00;2.28;;;1.75;;
13866;SDS011;7003;46.982;15.248;2022-09-16T02:56:38;1.05;;;1.00;;
13866;SDS011;7003;46.982;15.248;2022-09-16T02:59:09;1.05;;;0.90;;
13866;SDS011;7003;46.982;15.248;2022-09-16T03:01:41;2.10;;;1.20;;
13866;SDS011;7003;46.982;15.248;2022-09-16T03:04:18;1.38;;;1.10;;
13866;SDS011;7003;46.982;15.248;2022-09-16T03:06:56;1.00;;;0.90;;
13866;SDS011;7003;46.982;15.248;2022-09-16T03:09:35;1.35;;;1.10;;
13866;SDS011;7003;46.982;15.248;2022-09-16T03:12:14;0.98;;;0.80;;
13866;SDS011;7003;46.982;15.248;2022-09-16T03:18:32;0.98;;;0.88;;
13866;SDS011;7003;46.982;15.248;2022-09-16T03:21:20;1.30;;;1.10;;
13866;SDS011;7003;46.982;15.248;2022-09-16T03:24:05;1.55;;;1.25;;
13866;SDS011;7003;46.982;15.248;2022-09-16T03:26:59;1.58;;;1.48;;
13866;SDS011;7003;46.982;15.248;2022-09-16T03:29:33;5.20;;;1.40;;
13866;SDS011;7003;46.982;15.248;2022-09-16T03:32:11;0.63;;;0.63;;
13866;SDS011;7003;46.982;15.248;2022-09-16T03:34:50;1.23;;;1.13;;
13866;SDS011;7003;46.982;15.248;2022-09-16T03:37:28;1.08;;;1.05;;
13866;SDS011;7003;46.982;15.248;2022-09-16T03:40:18;1.50;;;1.40;;
13866;SDS011;7003;46.982;15.248;2022-09-16T03:42:57;1.23;;;1.13;;
13866;SDS011;7003;46.982;15.248;2022-09-16T03:45:27;1.20;;;1.05;;
13866;SDS011;7003;46.982;15.248;2022-09-16T03:48:02;1.35;;;1.25;;
13866;SDS011;7003;46.982;15.248;2022-09-16T03:50:31;0.90;;;0.90;;
13866;SDS011;7003;46.982;15.248;2022-09-16T03:53:00;1.25;;;1.13;;
13866;SDS011;7003;46.982;15.248;2022-09-16T03:55:35;1.17;;;0.98;;
13866;SDS011;7003;46.982;15.248;2022-09-16T03:58:04;1.08;;;1.00;;
13866;SDS011;7003;46.982;15.248;2022-09-16T04:00:37;1.52;;;1.30;;
13866;SDS011;7003;46.982;15.248;2022-09-16T04:03:04;0.95;;;0.90;;
13866;SDS011;7003;46.982;15.248;2022-09-16T04:05:32;5.63;;;4.63;;
13866;SDS011;7003;46.982;15.248;2022-09-16T04:08:02;2.22;;;1.50;;
13866;SDS011;7003;46.982;15.248;2022-09-16T04:10:33;3.90;;;1.20;;
13866;SDS011;7003;46.982;15.248;2022-09-16T04:13:00;1.55;;;1.23;;
13866;SDS011;7003;46.982;15.248;2022-09-16T04:15:28;5.13;;;1.50;;
13866;SDS011;7003;46.982;15.248;2022-09-16T04:17:56;1.30;;;1.20;;
13866;SDS011;7003;46.982;15.248;2022-09-16T04:20:23;1.33;;;0.98;;
13866;SDS011;7003;46.982;15.248;2022-09-16T04:22:51;2.28;;;1.63;;
13866;SDS011;7003;46.982;15.248;2022-09-16T04:25:20;1.58;;;1.48;;
13866;SDS011;7003;46.982;15.248;2022-09-16T04:27:51;2.42;;;1.52;;
13866;SDS011;7003;46.982;15.248;2022-09-16T04:30:18;1.88;;;1.38;;
13866;SDS011;7003;46.982;15.248;2022-09-16T04:32:51;1.60;;;1.42;;
13866;SDS011;7003;46.982;15.248;2022-09-16T04:35:19;1.45;;;1.27;;
13866;SDS011;7003;46.982;15.248;2022-09-16T04:37:49;1.40;;;1.02;;
13866;SDS011;7003;46.982;15.248;2022-09-16T04:40:21;2.03;;;1.67;;
13866;SDS011;7003;46.982;15.248;2022-09-16T04:42:52;1.85;;;1.48;;
13866;SDS011;7003;46.982;15.248;2022-09-16T04:45:22;0.93;;;0.93;;
13866;SDS011;7003;46.982;15.248;2022-09-16T04:47:54;2.00;;;1.45;;
13866;SDS011;7003;46.982;15.248;2022-09-16T04:50:22;1.98;;;1.45;;
13866;SDS011;7003;46.982;15.248;2022-09-16T04:52:49;2.67;;;1.55;;
13866;SDS011;7003;46.982;15.248;2022-09-16T04:55:18;1.38;;;1.27;;
13866;SDS011;7003;46.982;15.248;2022-09-16T04:57:51;1.40;;;1.20;;
13866;SDS011;7003;46.982;15.248;2022-09-16T05:00:18;1.55;;;1.45;;
13866;SDS011;7003;46.982;15.248;2022-09-16T05:02:48;8.43;;;2.13;;
13866;SDS011;7003;46.982;15.248;2022-09-16T05:05:18;1.58;;;1.48;;
13866;SDS011;7003;46.982;15.248;2022-09-16T05:07:48;2.03;;;1.65;;
13866;SDS011;7003;46.982;15.248;2022-09-16T05:10:21;1.27;;;1.17;;
13866;SDS011;7003;46.982;15.248;2022-09-16T05:12:52;1.30;;;1.20;;
13866;SDS011;7003;46.982;15.248;2022-09-16T05:15:20;1.73;;;1.58;;
13866;SDS011;7003;46.982;15.248;2022-09-16T05:17:48;1.88;;;1.48;;
13866;SDS011;7003;46.982;15.248;2022-09-16T05:20:16;5.65;;;1.70;;
13866;SDS011;7003;46.982;15.248;2022-09-16T05:22:43;6.70;;;1.70;;
13866;SDS011;7003;46.982;15.248;2022-09-16T05:25:12;2.08;;;1.42;;
13866;SDS011;7003;46.982;15.248;2022-09-16T05:27:42;2.45;;;1.70;;
13866;SDS011;7003;46.982;15.248;2022-09-16T05:30:12;2.22;;;2.03;;
13866;SDS011;7003;46.982;15.248;2022-09-16T05:32:42;1.92;;;1.80;;
13866;SDS011;7003;46.982;15.248;2022-09-16T05:35:13;2.95;;;1.40;;
13866;SDS011;7003;46.982;15.248;2022-09-16T05:37:42;4.20;;;1.67;;
13866;SDS011;7003;46.982;15.248;2022-09-16T05:40:12;1.63;;;1.52;;
13866;SDS011;7003;46.982;15.248;2022-09-16T05:42:40;1.55;;;1.25;;
13866;SDS011;7003;46.982;15.248;2022-09-16T05:45:12;1.80;;;1.40;;
13866;SDS011;7003;46.982;15.248;2022-09-16T05:47:46;2.35;;;1.50;;
13866;SDS011;7003;46.982;15.248;2022-09-16T05:50:16;1.13;;;1.02;;
13866;SDS011;7003;46.982;15.248;2022-09-16T05:52:47;3.97;;;2.05;;
13866;SDS011;7003;46.982;15.248;2022-09-16T05:55:15;1.30;;;1.20;;
13866;SDS011;7003;46.982;15.248;2022-09-16T05:57:44;1.83;;;1.20;;
13866;SDS011;7003;46.982;15.248;2022-09-16T06:00:16;2.05;;;1.80;;
13866;SDS011;7003;46.982;15.248;2022-09-16T06:02:48;2.20;;;1.75;;
13866;SDS011;7003;46.982;15.248;2022-09-16T06:05:18;2.50;;;1.42;;
13866;SDS011;7003;46.982;15.248;2022-09-16T06:07:55;1.30;;;1.20;;
13866;SDS011;7003;46.982;15.248;2022-09-16T06:10:28;2.67;;;2.42;;
13866;SDS011;7003;46.982;15.248;2022-09-16T06:12:58;2.53;;;2.33;;
13866;SDS011;7003;46.982;15.248;2022-09-16T06:15:30;2.25;;;1.98;;
13866;SDS011;7003;46.982;15.248;2022-09-16T06:18:02;3.08;;;2.80;;
13866;SDS011;7003;46.982;15.248;2022-09-16T06:20:33;2.33;;;2.13;;
13866;SDS011;7003;46.982;15.248;2022-09-16T06:23:05;3.35;;;2.92;;
13866;SDS011;7003;46.982;15.248;2022-09-16T06:25:38;3.00;;;2.70;;
13866;SDS011;7003;46.982;15.248;2022-09-16T06:28:10;3.33;;;3.03;;
13866;SDS011;7003;46.982;15.248;2022-09-16T06:30:45;3.13;;;2.38;;
13866;SDS011;7003;46.982;15.248;2022-09-16T06:33:16;4.05;;;2.55;;
13866;SDS011;7003;46.982;15.248;2022-09-16T06:35:47;2.78;;;2.47;;
13866;SDS011;7003;46.982;15.248;2022-09-16T06:38:19;5.40;;;3.30;;
13866;SDS011;7003;46.982;15.248;2022-09-16T06:40:49;5.15;;;2.97;;
13866;SDS011;7003;46.982;15.248;2022-09-16T06:43:19;3.58;;;3.28;;
13866;SDS011;7003;46.982;15.248;2022-09-16T06:45:51;6.47;;;3.97;;
13866;SDS011;7003;46.982;15.248;2022-09-16T06:48:25;4.30;;;2.83;;
13866;SDS011;7003;46.982;15.248;2022-09-16T06:50:57;3.53;;;3.22;;
13866;SDS011;7003;46.982;15.248;2022-09-16T06:53:25;3.13;;;2.83;;
13866;SDS011;7003;46.982;15.248;2022-09-16T06:55:54;4.18;;;3.45;;
13866;SDS011;7003;46.982;15.248;2022-09-16T06:58:25;3.15;;;2.60;;
13866;SDS011;7003;46.982;15.248;2022-09-16T07:00:56;2.80;;;2.58;;
13866;SDS011;7003;46.982;15.248;2022-09-16T07:03:23;3.90;;;3.22;;
13866;SDS011;7003;46.982;15.248;2022-09-16T07:05:56;3.05;;;2.17;;
13866;SDS011;7003;46.982;15.248;2022-09-16T07:08:32;3.03;;;2.80;;
13866;SDS011;7003;46.982;15.248;2022-09-16T07:11:04;4.43;;;3.63;;
13866;SDS011;7003;46.982;15.248;2022-09-16T07:13:33;4.13;;;3.05;;
13866;SDS011;7003;46.982;15.248;2022-09-16T07:16:02;5.22;;;4.20;;
13866;SDS011;7003;46.982;15.248;2022-09-16T07:18:34;3.65;;;3.35;;
13866;SDS011;7003;46.982;15.248;2022-09-16T07:21:02;4.00;;;3.30;;
13866;SDS011;7003;46.982;15.248;2022-09-16T07:23:33;3.58;;;3.28;;
13866;SDS011;7003;46.982;15.248;2022-09-16T07:26:03;5.25;;;3.33;;
13866;SDS011;7003;46.982;15.248;2022-09-16T07:28:34;3.75;;;3.03;;
13866;SDS011;7003;46.982;15.248;2022-09-16T07:31:07;3.83;;;3.13;;
13866;SDS011;7003;46.982;15.248;2022-09-16T07:33:40;4.75;;;4.28;;
13866;SDS011;7003;46.982;15.248;2022-09-16T07:36:10;2.80;;;2.58;;
13866;SDS011;7003;46.982;15.248;2022-09-16T07:38:42;3.72;;;2.95;;
13866;SDS011;7003;46.982;15.248;2022-09-16T07:41:10;6.82;;;3.50;;
13866;SDS011;7003;46.982;15.248;2022-09-16T07:43:38;3.20;;;2.90;;
13866;SDS011;7003;46.982;15.248;2022-09-16T07:46:11;4.75;;;3.13;;
13866;SDS011;7003;46.982;15.248;2022-09-16T07:48:43;3.47;;;3.17;;
13866;SDS011;7003;46.982;15.248;2022-09-16T07:51:13;3.30;;;3.00;;
13866;SDS011;7003;46.982;15.248;2022-09-16T07:53:42;4.22;;;3.83;;
13866;SDS011;7003;46.982;15.248;2022-09-16T07:56:12;4.18;;;3.88;;
13866;SDS011;7003;46.982;15.248;2022-09-16T07:58:43;8.18;;;4.18;;
13866;SDS011;7003;46.982;15.248;2022-09-16T08:01:14;4.38;;;3.30;;
13866;SDS011;7003;46.982;15.248;2022-09-16T08:03:43;3.33;;;2.80;;
13866;SDS011;7003;46.982;15.248;2022-09-16T08:06:12;2.95;;;2.55;;
13866;SDS011;7003;46.982;15.248;2022-09-16T08:08:42;3.63;;;3.33;;
13866;SDS011;7003;46.982;15.248;2022-09-16T08:11:11;3.83;;;3.42;;
13866;SDS011;7003;46.982;15.248;2022-09-16T08:13:41;4.95;;;3.40;;
13866;SDS011;7003;46.982;15.248;2022-09-16T08:16:14;4.07;;;3.55;;
13866;SDS011;7003;46.982;15.248;2022-09-16T08:18:43;4.15;;;3.03;;
13866;SDS011;7003;46.982;15.248;2022-09-16T08:21:13;3.10;;;2.75;;
13866;SDS011;7003;46.982;15.248;2022-09-16T08:23:42;4.07;;;3.67;;
13866;SDS011;7003;46.982;15.248;2022-09-16T08:26:11;3.63;;;3.00;;
13866;SDS011;7003;46.982;15.248;2022-09-16T08:28:41;3.67;;;3.30;;
13866;SDS011;7003;46.982;15.248;2022-09-16T08:31:10;3.42;;;3.08;;
13866;SDS011;7003;46.982;15.248;2022-09-16T08:33:40;4.25;;;3.35;;
13866;SDS011;7003;46.982;15.248;2022-09-16T08:36:10;3.85;;;3.20;;
13866;SDS011;7003;46.982;15.248;2022-09-16T08:38:41;4.07;;;3.67;;
13866;SDS011;7003;46.982;15.248;2022-09-16T08:41:19;3.30;;;2.70;;
13866;SDS011;7003;46.982;15.248;2022-09-16T08:43:57;3.03;;;2.72;;
13866;SDS011;7003;46.982;15.248;2022-09-16T08:46:41;2.90;;;2.60;;
13866;SDS011;7003;46.982;15.248;2022-09-16T08:49:18;3.22;;;2.83;;
13866;SDS011;7003;46.982;15.248;2022-09-16T08:51:55;3.42;;;3.13;;
13866;SDS011;7003;46.982;15.248;2022-09-16T08:54:30;3.15;;;2.80;;
13866;SDS011;7003;46.982;15.248;2022-09-16T08:57:01;7.18;;;2.70;;
13866;SDS011;7003;46.982;15.248;2022-09-16T08:59:34;4.05;;;2.42;;
13866;SDS011;7003;46.982;15.248;2022-09-16T09:02:12;2.53;;;2.33;;
13866;SDS011;7003;46.982;15.248;2022-09-16T09:04:51;2.85;;;2.55;;
13866;SDS011;7003;46.982;15.248;2022-09-16T09:07:21;4.05;;;2.80;;
13866;SDS011;7003;46.982;15.248;2022-09-16T09:10:12;3.25;;;2.30;;
13866;SDS011;7003;46.982;15.248;2022-09-16T09:12:51;2.50;;;2.30;;
13866;SDS011;7003;46.982;15.248;2022-09-16T09:15:36;3.72;;;2.55;;
13866;SDS011;7003;46.982;15.248;2022-09-16T09:18:13;3.45;;;2.75;;
13866;SDS011;7003;46.982;15.248;2022-09-16T09:20:51;3.83;;;2.65;;
13866;SDS011;7003;46.982;15.248;2022-09-16T09:23:31;4.05;;;3.67;;
13866;SDS011;7003;46.982;15.248;2022-09-16T09:26:15;3.33;;;2.83;;
13866;SDS011;7003;46.982;15.248;2022-09-16T09:28:55;2.58;;;2.28;;
13866;SDS011;7003;46.982;15.248;2022-09-16T09:31:40;2.35;;;2.13;;
13866;SDS011;7003;46.982;15.248;2022-09-16T09:34:20;2.15;;;1.95;;
13866;SDS011;7003;46.982;15.248;2022-09-16T09:37:04;2.35;;;1.90;;
13866;SDS011;7003;46.982;15.248;2022-09-16T09:39:47;1.42;;;1.33;;
13866;SDS011;7003;46.982;15.248;2022-09-16T09:42:24;1.70;;;1.55;;
13866;SDS011;7003;46.982;15.248;2022-09-16T09:44:56;3.20;;;1.75;;
13866;SDS011;7003;46.982;15.248;2022-09-16T09:47:36;1.83;;;1.73;;
13866;SDS011;7003;46.982;15.248;2022-09-16T09:50:14;1.70;;;1.52;;
13866;SDS011;7003;46.982;15.248;2022-09-16T09:52:50;1.73;;;1.63;;
13866;SDS011;7003;46.982;15.248;2022-09-16T09:55:22;1.42;;;1.33;;
13866;SDS011;7003;46.982;15.248;2022-09-16T09:58:04;2.30;;;2.00;;
13866;SDS011;7003;46.982;15.248;2022-09-16T10:00:41;1.88;;;1.63;;
13866;SDS011;7003;46.982;15.248;2022-09-16T10:03:11;2.33;;;2.13;;
13866;SDS011;7003;46.982;15.248;2022-09-16T10:05:42;1.67;;;1.58;;
13866;SDS011;7003;46.982;15.248;2022-09-16T10:08:14;1.92;;;1.80;;
13866;SDS011;7003;46.982;15.248;2022-09-16T10:10:48;2.00;;;1.80;;
13866;SDS011;7003;46.982;15.248;2022-09-16T10:13:19;3.25;;;2.15;;
13866;SDS011;7003;46.982;15.248;2022-09-16T10:15:48;2.50;;;1.85;;
13866;SDS011;7003;46.982;15.248;2022-09-16T10:18:24;1.98;;;1.77;;
13866;SDS011;7003;46.982;15.248;2022-09-16T10:20:55;1.65;;;1.45;;
13866;SDS011;7003;46.982;15.248;2022-09-16T10:23:28;1.85;;;1.52;;
13866;SDS011;7003;46.982;15.248;2022-09-16T10:26:04;2.30;;;2.00;;
13866;SDS011;7003;46.982;15.248;2022-09-16T10:28:53;2.45;;;1.95;;
13866;SDS011;7003;46.982;15.248;2022-09-16T10:31:27;4.00;;;1.88;;
13866;SDS011;7003;46.982;15.248;2022-09-16T10:34:01;2.42;;;2.22;;
13866;SDS011;7003;46.982;15.248;2022-09-16T10:36:33;2.65;;;2.45;;
13866;SDS011;7003;46.982;15.248;2022-09-16T10:39:16;2.33;;;2.13;;
13866;SDS011;7003;46.982;15.248;2022-09-16T10:41:50;2.38;;;2.17;;
13866;SDS011;7003;46.982;15.248;2022-09-16T10:44:21;1.70;;;1.45;;
13866;SDS011;7003;46.982;15.248;2022-09-16T10:46:52;1.63;;;1.52;;
13866;SDS011;7003;46.982;15.248;2022-09-16T10:49:25;1.40;;;1.30;;
13866;SDS011;7003;46.982;15.248;2022-09-16T10:52:16;1.65;;;1.50;;
13866;SDS011;7003;46.982;15.248;2022-09-16T10:54:50;2.08;;;1.52;;
13866;SDS011;7003;46.982;15.248;2022-09-16T10:57:20;1.20;;;1.10;;
13866;SDS011;7003;46.982;15.248;2022-09-16T10:59:59;2.13;;;1.40;;
13866;SDS011;7003;46.982;15.248;2022-09-16T11:02:38;1.67;;;1.13;;
13866;SDS011;7003;46.982;15.248;2022-09-16T11:05:17;1.00;;;0.98;;
13866;SDS011;7003;46.982;15.248;2022-09-16T11:07:58;1.73;;;1.27;;
13866;SDS011;7003;46.982;15.248;2022-09-16T11:10:38;1.38;;;1.27;;
13866;SDS011;7003;46.982;15.248;2022-09-16T11:19:05;1.92;;;1.40;;
13866;SDS011;7003;46.982;15.248;2022-09-16T11:21:44;1.20;;;1.13;;
13866;SDS011;7003;46.982;15.248;2022-09-16T11:24:32;1.83;;;1.10;;
13866;SDS011;7003;46.982;15.248;2022-09-16T11:27:14;1.27;;;1.15;;
13866;SDS011;7003;46.982;15.248;2022-09-16T11:29:56;1.05;;;0.98;;
13866;SDS011;7003;46.982;15.248;2022-09-16T11:32:38;1.25;;;1.15;;
13866;SDS011;7003;46.982;15.248;2022-09-16T11:35:31;1.20;;;1.10;;
13866;SDS011;7003;46.982;15.248;2022-09-16T11:38:12;1.35;;;0.90;;
13866;SDS011;7003;46.982;15.248;2022-09-16T11:40:52;0.95;;;0.90;;
13866;SDS011;7003;46.982;15.248;2022-09-16T11:46:26;1.45;;;1.35;;
13866;SDS011;7003;46.982;15.248;2022-09-16T11:49:06;1.75;;;0.98;;
13866;SDS011;7003;46.982;15.248;2022-09-16T11:51:50;1.08;;;0.98;;
13866;SDS011;7003;46.982;15.248;2022-09-16T11:54:34;0.88;;;0.88;;
13866;SDS011;7003;46.982;15.248;2022-09-16T11:57:15;0.70;;;0.70;;
13866;SDS011;7003;46.982;15.248;2022-09-16T11:59:47;0.90;;;0.90;;
13866;SDS011;7003;46.982;15.248;2022-09-16T12:02:22;1.00;;;0.90;;
13866;SDS011;7003;46.982;15.248;2022-09-16T12:04:57;1.05;;;0.95;;
13866;SDS011;7003;46.982;15.248;2022-09-16T12:07:33;0.75;;;0.75;;
13866;SDS011;7003;46.982;15.248;2022-09-16T12:10:11;1.10;;;0.60;;
13866;SDS011;7003;46.982;15.248;2022-09-16T12:12:43;1.13;;;1.02;;
13866;SDS011;7003;46.982;15.248;2022-09-16T12:15:20;1.00;;;0.90;;
13866;SDS011;7003;46.982;15.248;2022-09-16T12:17:52;0.73;;;0.73;;
13866;SDS011;7003;46.982;15.248;2022-09-16T12:20:26;1.30;;;1.20;;
13866;SDS011;7003;46.982;15.248;2022-09-16T12:22:59;1.60;;;1.48;;
13866;SDS011;7003;46.982;15.248;2022-09-16T12:25:33;2.20;;;1.10;;
13866;SDS011;7003;46.982;15.248;2022-09-16T12:28:11;1.75;;;1.65;;
13866;SDS011;7003;46.982;15.248;2022-09-16T12:30:51;3.53;;;2.28;;
13866;SDS011;7003;46.982;15.248;2022-09-16T12:33:28;1.50;;;1.17;;
13866;SDS011;7003;46.982;15.248;2022-09-16T12:36:02;2.92;;;1.58;;
13866;SDS011;7003;46.982;15.248;2022-09-16T12:38:33;3.05;;;2.30;;
13866;SDS011;7003;46.982;15.248;2022-09-16T12:41:06;2.53;;;2.33;;
13866;SDS011;7003;46.982;15.248;2022-09-16T12:43:51;2.90;;;2.63;;
13866;SDS011;7003;46.982;15.248;2022-09-16T12:46:40;2.15;;;1.88;;
13866;SDS011;7003;46.982;15.248;2022-09-16T12:55:56;3.10;;;2.85;;
13866;SDS011;7003;46.982;15.248;2022-09-16T12:58:42;3.40;;;2.75;;
13866;SDS011;7003;46.982;15.248;2022-09-16T13:01:33;2.17;;;2.00;;
13866;SDS011;7003;46.982;15.248;2022-09-16T13:04:11;2.45;;;2.22;;
13866;SDS011;7003;46.982;15.248;2022-09-16T13:06:43;3.38;;;2.92;;
13866;SDS011;7003;46.982;15.248;2022-09-16T13:09:16;3.05;;;2.15;;
13866;SDS011;7003;46.982;15.248;2022-09-16T13:11:53;2.63;;;2.20;;
13866;SDS011;7003;46.982;15.248;2022-09-16T13:14:26;3.15;;;2.40;;
13866;SDS011;7003;46.982;15.248;2022-09-16T13:16:58;2.30;;;2.10;;
13866;SDS011;7003;46.982;15.248;2022-09-16T13:22:22;2.97;;;2.65;;
13866;SDS011;7003;46.982;15.248;2022-09-16T13:24:56;2.08;;;1.98;;
13866;SDS011;7003;46.982;15.248;2022-09-16T13:27:37;2.35;;;2.10;;
13866;SDS011;7003;46.982;15.248;2022-09-16T13:30:24;2.58;;;2.38;;
13866;SDS011;7003;46.982;15.248;2022-09-16T13:33:21;3.03;;;2.72;;
13866;SDS011;7003;46.982;15.248;2022-09-16T13:38:59;2.78;;;2.47;;
13866;SDS011;7003;46.982;15.248;2022-09-16T13:41:32;3.95;;;2.30;;
13866;SDS011;7003;46.982;15.248;2022-09-16T13:47:05;2.78;;;2.30;;
13866;SDS011;7003;46.982;15.248;2022-09-16T13:49:42;3.63;;;3.33;;
13866;SDS011;7003;46.982;15.248;2022-09-16T13:52:20;2.22;;;1.58;;
13866;SDS011;7003;46.982;15.248;2022-09-16T13:54:58;3.13;;;2.85;;
13866;SDS011;7003;46.982;15.248;2022-09-16T13:57:32;5.50;;;2.63;;
13866;SDS011;7003;46.982;15.248;2022-09-16T14:00:12;4.45;;;2.13;;
13866;SDS011;7003;46.982;15.248;2022-09-16T14:05:50;4.05;;;2.83;;
13866;SDS011;7003;46.982;15.248;2022-09-16T14:08:45;2.25;;;2.05;;
13866;SDS011;7003;46.982;15.248;2022-09-16T14:11:25;3.08;;;2.25;;
13866;SDS011;7003;46.982;15.248;2022-09-16T14:14:00;3.03;;;2.45;;
13866;SDS011;7003;46.982;15.248;2022-09-16T14:16:33;2.85;;;2.58;;
13866;SDS011;7003;46.982;15.248;2022-09-16T14:19:10;3.60;;;2.80;;
13866;SDS011;7003;46.982;15.248;2022-09-16T14:22:00;1.80;;;1.70;;
13866;SDS011;7003;46.982;15.248;2022-09-16T14:24:35;3.33;;;2.30;;
13866;SDS011;7003;46.982;15.248;2022-09-16T14:27:05;3.47;;;2.70;;
13866;SDS011;7003;46.982;15.248;2022-09-16T14:29:52;3.10;;;2.80;;
13866;SDS011;7003;46.982;15.248;2022-09-16T14:32:22;3.13;;;2.85;;
13866;SDS011;7003;46.982;15.248;2022-09-16T14:34:52;2.67;;;1.85;;
13866;SDS011;7003;46.982;15.248;2022-09-16T14:37:23;3.10;;;2.55;;
13866;SDS011;7003;46.982;15.248;2022-09-16T14:39:55;4.90;;;3.28;;
13866;SDS011;7003;46.982;15.248;2022-09-16T14:42:33;3.20;;;2.88;;
13866;SDS011;7003;46.982;15.248;2022-09-16T14:45:05;2.55;;;2.35;;
13866;SDS011;7003;46.982;15.248;2022-09-16T14:47:34;3.17;;;2.67;;
13866;SDS011;7003;46.982;15.248;2022-09-16T14:50:19;2.78;;;2.35;;
13866;SDS011;7003;46.982;15.248;2022-09-16T14:52:52;1.75;;;1.65;;
13866;SDS011;7003;46.982;15.248;2022-09-16T14:55:24;2.35;;;2.15;;
13866;SDS011;7003;46.982;15.248;2022-09-16T14:57:54;1.63;;;1.52;;
13866;SDS011;7003;46.982;15.248;2022-09-16T15:00:26;1.75;;;1.65;;
13866;SDS011;7003;46.982;15.248;2022-09-16T15:02:58;1.88;;;1.70;;
13866;SDS011;7003;46.982;15.248;2022-09-16T15:05:34;2.38;;;2.17;;
13866;SDS011;7003;46.982;15.248;2022-09-16T15:08:07;2.35;;;2.00;;
13866;SDS011;7003;46.982;15.248;2022-09-16T15:10:46;3.83;;;1.80;;
13866;SDS011;7003;46.982;15.248;2022-09-16T15:13:16;2.13;;;1.92;;
13866;SDS011;7003;46.982;15.248;2022-09-16T15:15:47;1.80;;;1.65;;
13866;SDS011;7003;46.982;15.248;2022-09-16T15:18:21;2.00;;;1.80;;
13866;SDS011;7003;46.982;15.248;2022-09-16T15:20:55;3.13;;;1.65;;
13866;SDS011;7003;46.982;15.248;2022-09-16T15:23:28;1.55;;;1.45;;
13866;SDS011;7003;46.982;15.248;2022-09-16T15:26:05;2.10;;;1.75;;
13866;SDS011;7003;46.982;15.248;2022-09-16T15:28:49;3.03;;;1.75;;
13866;SDS011;7003;46.982;15.248;2022-09-16T15:31:29;2.33;;;2.13;;
13866;SDS011;7003;46.982;15.248;2022-09-16T15:33:59;2.08;;;1.85;;
13866;SDS011;7003;46.982;15.248;2022-09-16T15:36:35;1.42;;;1.33;;
13866;SDS011;7003;46.982;15.248;2022-09-16T15:39:19;2.53;;;2.33;;
13866;SDS011;7003;46.982;15.248;2022-09-16T15:42:04;2.03;;;1.80;;
13866;SDS011;7003;46.982;15.248;2022-09-16T15:44:41;2.50;;;2.30;;
13866;SDS011;7003;46.982;15.248;2022-09-16T15:47:16;2.17;;;1.98;;
13866;SDS011;7003;46.982;15.248;2022-09-16T15:49:46;2.65;;;2.00;;
13866;SDS011;7003;46.982;15.248;2022-09-16T15:52:17;1.45;;;1.35;;
13866;SDS011;7003;46.982;15.248;2022-09-16T15:54:45;1.55;;;1.45;;
13866;SDS011;7003;46.982;15.248;2022-09-16T15:57:22;1.70;;;1.60;;
13866;SDS011;7003;46.982;15.248;2022-09-16T15:59:56;1.75;;;1.65;;
13866;SDS011;7003;46.982;15.248;2022-09-16T16:02:38;2.10;;;1.88;;